sensor_id;sensor_type;location;lat;lon;timestamp;P1;durP1;ratioP1;P2;durP2;ratioP2
69573;SDS011;62840;52.366;5.980;2023-09-08T00:01:44;8.60;;;5.93;;
69573;SDS011;62840;52.366;5.980;2023-09-08T00:04:09;9.90;;;5.68;;
69573;SDS011;62840;52.366;5.980;2023-09-08T00:06:35;8.77;;;5.70;;
69573;SDS011;62840;52.366;5.980;2023-09-08T00:09:02;8.03;;;5.80;;
69573;SDS011;62840;52.366;5.980;2023-09-08T00:11:28;8.75;;;5.10;;
69573;SDS011;62840;52.366;5.980;2023-09-08T00:13:54;9.00;;;5.60;;
69573;SDS011;62840;52.366;5.980;2023-09-08T00:16:20;8.40;;;5.50;;
69573;SDS011;62840;52.366;5.980;2023-09-08T00:18:48;7.53;;;5.17;;
69573;SDS011;62840;52.366;5.980;2023-09-08T00:21:14;7.78;;;5.40;;
69573;SDS011;62840;52.366;5.980;2023-09-08T00:23:40;8.38;;;5.07;;
69573;SDS011;62840;52.366;5.980;2023-09-08T00:26:06;7.83;;;5.20;;
69573;SDS011;62840;52.366;5.980;2023-09-08T00:28:32;8.82;;;5.18;;
69573;SDS011;62840;52.366;5.980;2023-09-08T00:30:58;8.45;;;5.10;;
69573;SDS011;62840;52.366;5.980;2023-09-08T00:33:23;7.88;;;5.45;;
69573;SDS011;62840;52.366;5.980;2023-09-08T00:35:52;8.00;;;5.60;;
69573;SDS011;62840;52.366;5.980;2023-09-08T00:38:17;8.98;;;5.10;;
69573;SDS011;62840;52.366;5.980;2023-09-08T00:40:43;9.60;;;5.75;;
69573;SDS011;62840;52.366;5.980;2023-09-08T00:43:09;8.20;;;5.50;;
69573;SDS011;62840;52.366;5.980;2023-09-08T00:45:35;9.43;;;5.30;;
69573;SDS011;62840;52.366;5.980;2023-09-08T00:48:05;7.88;;;5.30;;
69573;SDS011;62840;52.366;5.980;2023-09-08T00:50:32;8.07;;;5.35;;
69573;SDS011;62840;52.366;5.980;2023-09-08T00:53:01;8.80;;;5.10;;
69573;SDS011;62840;52.366;5.980;2023-09-08T00:55:27;9.02;;;5.18;;
69573;SDS011;62840;52.366;5.980;2023-09-08T00:57:54;7.72;;;4.88;;
69573;SDS011;62840;52.366;5.980;2023-09-08T01:00:20;8.10;;;5.57;;
69573;SDS011;62840;52.366;5.980;2023-09-08T01:02:46;11.77;;;6.00;;
69573;SDS011;62840;52.366;5.980;2023-09-08T01:05:12;9.27;;;5.40;;
69573;SDS011;62840;52.366;5.980;2023-09-08T01:07:38;9.68;;;5.85;;
69573;SDS011;62840;52.366;5.980;2023-09-08T01:10:07;8.90;;;5.30;;
69573;SDS011;62840;52.366;5.980;2023-09-08T01:12:34;8.45;;;5.35;;
69573;SDS011;62840;52.366;5.980;2023-09-08T01:15:00;7.43;;;5.22;;
69573;SDS011;62840;52.366;5.980;2023-09-08T01:17:26;9.15;;;5.30;;
69573;SDS011;62840;52.366;5.980;2023-09-08T01:19:52;9.18;;;5.60;;
69573;SDS011;62840;52.366;5.980;2023-09-08T01:25:45;7.90;;;4.80;;
69573;SDS011;62840;52.366;5.980;2023-09-08T01:28:17;8.52;;;5.57;;
69573;SDS011;62840;52.366;5.980;2023-09-08T01:30:45;9.05;;;5.60;;
69573;SDS011;62840;52.366;5.980;2023-09-08T01:33:12;8.80;;;5.80;;
69573;SDS011;62840;52.366;5.980;2023-09-08T01:35:38;8.33;;;5.30;;
69573;SDS011;62840;52.366;5.980;2023-09-08T01:38:04;8.75;;;5.47;;
69573;SDS011;62840;52.366;5.980;2023-09-08T01:40:30;8.65;;;5.88;;
69573;SDS011;62840;52.366;5.980;2023-09-08T01:42:58;9.03;;;5.37;;
69573;SDS011;62840;52.366;5.980;2023-09-08T01:45:24;9.70;;;5.40;;
69573;SDS011;62840;52.366;5.980;2023-09-08T01:47:50;9.55;;;5.70;;
69573;SDS011;62840;52.366;5.980;2023-09-08T01:50:15;8.50;;;4.88;;
69573;SDS011;62840;52.366;5.980;2023-09-08T01:52:41;8.13;;;5.53;;
69573;SDS011;62840;52.366;5.980;2023-09-08T01:55:07;7.77;;;5.23;;
69573;SDS011;62840;52.366;5.980;2023-09-08T01:57:33;9.55;;;5.57;;
69573;SDS011;62840;52.366;5.980;2023-09-08T02:00:01;9.10;;;5.80;;
69573;SDS011;62840;52.366;5.980;2023-09-08T02:02:28;8.82;;;5.82;;
69573;SDS011;62840;52.366;5.980;2023-09-08T02:04:54;8.50;;;5.78;;
69573;SDS011;62840;52.366;5.980;2023-09-08T02:07:19;10.75;;;5.70;;
69573;SDS011;62840;52.366;5.980;2023-09-08T02:09:45;8.70;;;5.30;;
69573;SDS011;62840;52.366;5.980;2023-09-08T02:12:11;9.32;;;5.80;;
69573;SDS011;62840;52.366;5.980;2023-09-08T02:14:37;10.70;;;5.87;;
69573;SDS011;62840;52.366;5.980;2023-09-08T02:17:05;9.73;;;5.80;;
69573;SDS011;62840;52.366;5.980;2023-09-08T02:19:31;9.35;;;5.50;;
69573;SDS011;62840;52.366;5.980;2023-09-08T02:21:56;9.60;;;6.10;;
69573;SDS011;62840;52.366;5.980;2023-09-08T02:24:22;7.78;;;5.10;;
69573;SDS011;62840;52.366;5.980;2023-09-08T02:26:48;7.33;;;4.90;;
69573;SDS011;62840;52.366;5.980;2023-09-08T02:29:15;7.90;;;5.28;;
69573;SDS011;62840;52.366;5.980;2023-09-08T02:31:40;9.07;;;5.60;;
69573;SDS011;62840;52.366;5.980;2023-09-08T02:34:09;8.00;;;5.40;;
69573;SDS011;62840;52.366;5.980;2023-09-08T02:36:34;7.70;;;5.15;;
69573;SDS011;62840;52.366;5.980;2023-09-08T02:39:00;8.10;;;5.10;;
69573;SDS011;62840;52.366;5.980;2023-09-08T02:41:26;9.07;;;5.28;;
69573;SDS011;62840;52.366;5.980;2023-09-08T02:43:51;6.77;;;4.83;;
69573;SDS011;62840;52.366;5.980;2023-09-08T02:46:17;8.02;;;5.32;;
69573;SDS011;62840;52.366;5.980;2023-09-08T02:48:43;8.77;;;5.97;;
69573;SDS011;62840;52.366;5.980;2023-09-08T02:51:11;8.60;;;5.15;;
69573;SDS011;62840;52.366;5.980;2023-09-08T02:53:37;8.63;;;5.67;;
69573;SDS011;62840;52.366;5.980;2023-09-08T02:56:02;7.82;;;5.35;;
69573;SDS011;62840;52.366;5.980;2023-09-08T02:58:28;8.40;;;5.70;;
69573;SDS011;62840;52.366;5.980;2023-09-08T03:00:54;7.67;;;5.20;;
69573;SDS011;62840;52.366;5.980;2023-09-08T03:03:20;8.18;;;5.35;;
69573;SDS011;62840;52.366;5.980;2023-09-08T03:05:46;8.27;;;5.50;;
69573;SDS011;62840;52.366;5.980;2023-09-08T03:08:14;8.85;;;5.53;;
69573;SDS011;62840;52.366;5.980;2023-09-08T03:10:40;7.95;;;5.35;;
69573;SDS011;62840;52.366;5.980;2023-09-08T03:13:06;9.82;;;5.80;;
69573;SDS011;62840;52.366;5.980;2023-09-08T03:15:31;8.30;;;5.25;;
69573;SDS011;62840;52.366;5.980;2023-09-08T03:17:59;8.30;;;5.03;;
69573;SDS011;62840;52.366;5.980;2023-09-08T03:20:25;8.37;;;5.13;;
69573;SDS011;62840;52.366;5.980;2023-09-08T03:22:51;8.13;;;5.32;;
69573;SDS011;62840;52.366;5.980;2023-09-08T03:25:19;8.55;;;5.38;;
69573;SDS011;62840;52.366;5.980;2023-09-08T03:27:45;9.18;;;5.22;;
69573;SDS011;62840;52.366;5.980;2023-09-08T03:30:12;8.45;;;5.80;;
69573;SDS011;62840;52.366;5.980;2023-09-08T03:32:38;8.23;;;5.65;;
69573;SDS011;62840;52.366;5.980;2023-09-08T03:35:04;8.40;;;6.05;;
69573;SDS011;62840;52.366;5.980;2023-09-08T03:37:31;9.70;;;5.50;;
69573;SDS011;62840;52.366;5.980;2023-09-08T03:39:57;8.68;;;5.40;;
69573;SDS011;62840;52.366;5.980;2023-09-08T03:42:26;8.87;;;5.37;;
69573;SDS011;62840;52.366;5.980;2023-09-08T03:44:51;8.75;;;5.55;;
69573;SDS011;62840;52.366;5.980;2023-09-08T03:47:17;9.75;;;5.57;;
69573;SDS011;62840;52.366;5.980;2023-09-08T03:49:43;8.63;;;5.33;;
69573;SDS011;62840;52.366;5.980;2023-09-08T03:52:08;7.78;;;5.03;;
69573;SDS011;62840;52.366;5.980;2023-09-08T03:54:34;8.00;;;5.50;;
69573;SDS011;62840;52.366;5.980;2023-09-08T03:57:00;8.18;;;5.05;;
69573;SDS011;62840;52.366;5.980;2023-09-08T03:59:29;10.13;;;5.82;;
69573;SDS011;62840;52.366;5.980;2023-09-08T04:01:55;9.15;;;5.55;;
69573;SDS011;62840;52.366;5.980;2023-09-08T04:04:20;9.88;;;5.78;;
69573;SDS011;62840;52.366;5.980;2023-09-08T04:06:46;9.20;;;5.30;;
69573;SDS011;62840;52.366;5.980;2023-09-08T04:09:12;9.98;;;5.85;;
69573;SDS011;62840;52.366;5.980;2023-09-08T04:11:37;9.10;;;5.93;;
69573;SDS011;62840;52.366;5.980;2023-09-08T04:14:03;9.13;;;5.85;;
69573;SDS011;62840;52.366;5.980;2023-09-08T04:16:31;9.67;;;5.80;;
69573;SDS011;62840;52.366;5.980;2023-09-08T04:18:57;10.00;;;5.53;;
69573;SDS011;62840;52.366;5.980;2023-09-08T04:21:23;8.93;;;5.83;;
69573;SDS011;62840;52.366;5.980;2023-09-08T04:23:48;9.63;;;5.72;;
69573;SDS011;62840;52.366;5.980;2023-09-08T04:26:14;8.60;;;5.93;;
69573;SDS011;62840;52.366;5.980;2023-09-08T04:28:40;9.13;;;5.70;;
69573;SDS011;62840;52.366;5.980;2023-09-08T04:31:05;8.63;;;5.43;;
69573;SDS011;62840;52.366;5.980;2023-09-08T04:33:34;8.45;;;5.00;;
69573;SDS011;62840;52.366;5.980;2023-09-08T04:35:59;8.95;;;5.90;;
69573;SDS011;62840;52.366;5.980;2023-09-08T04:38:25;9.27;;;5.40;;
69573;SDS011;62840;52.366;5.980;2023-09-08T04:40:51;9.05;;;5.80;;
69573;SDS011;62840;52.366;5.980;2023-09-08T04:43:16;9.00;;;5.77;;
69573;SDS011;62840;52.366;5.980;2023-09-08T04:45:42;9.10;;;4.93;;
69573;SDS011;62840;52.366;5.980;2023-09-08T04:48:08;8.60;;;5.40;;
69573;SDS011;62840;52.366;5.980;2023-09-08T04:50:36;9.10;;;5.38;;
69573;SDS011;62840;52.366;5.980;2023-09-08T04:53:02;7.87;;;5.40;;
69573;SDS011;62840;52.366;5.980;2023-09-08T04:55:29;9.30;;;5.28;;
69573;SDS011;62840;52.366;5.980;2023-09-08T04:57:55;9.05;;;5.82;;
69573;SDS011;62840;52.366;5.980;2023-09-08T05:00:20;7.93;;;5.10;;
69573;SDS011;62840;52.366;5.980;2023-09-08T05:02:46;8.95;;;5.60;;
69573;SDS011;62840;52.366;5.980;2023-09-08T05:05:12;8.63;;;5.25;;
69573;SDS011;62840;52.366;5.980;2023-09-08T05:07:40;8.75;;;5.25;;
69573;SDS011;62840;52.366;5.980;2023-09-08T05:10:06;8.20;;;5.53;;
69573;SDS011;62840;52.366;5.980;2023-09-08T05:12:32;8.80;;;5.40;;
69573;SDS011;62840;52.366;5.980;2023-09-08T05:14:59;8.80;;;5.90;;
69573;SDS011;62840;52.366;5.980;2023-09-08T05:17:25;8.82;;;5.43;;
69573;SDS011;62840;52.366;5.980;2023-09-08T05:19:51;10.07;;;5.53;;
69573;SDS011;62840;52.366;5.980;2023-09-08T05:22:17;9.95;;;5.43;;
69573;SDS011;62840;52.366;5.980;2023-09-08T05:24:45;8.55;;;5.32;;
69573;SDS011;62840;52.366;5.980;2023-09-08T05:27:11;10.27;;;5.38;;
69573;SDS011;62840;52.366;5.980;2023-09-08T05:29:36;8.68;;;5.13;;
69573;SDS011;62840;52.366;5.980;2023-09-08T05:32:02;8.27;;;5.43;;
69573;SDS011;62840;52.366;5.980;2023-09-08T05:34:29;8.80;;;5.25;;
69573;SDS011;62840;52.366;5.980;2023-09-08T05:36:54;8.02;;;5.15;;
69573;SDS011;62840;52.366;5.980;2023-09-08T05:39:20;8.37;;;4.87;;
69573;SDS011;62840;52.366;5.980;2023-09-08T05:41:48;7.65;;;5.38;;
69573;SDS011;62840;52.366;5.980;2023-09-08T05:44:14;10.37;;;5.20;;
69573;SDS011;62840;52.366;5.980;2023-09-08T05:46:40;8.57;;;5.20;;
69573;SDS011;62840;52.366;5.980;2023-09-08T05:49:05;7.50;;;4.67;;
69573;SDS011;62840;52.366;5.980;2023-09-08T05:51:31;8.40;;;5.70;;
69573;SDS011;62840;52.366;5.980;2023-09-08T05:53:57;8.63;;;5.50;;
69573;SDS011;62840;52.366;5.980;2023-09-08T05:56:24;9.10;;;4.88;;
69573;SDS011;62840;52.366;5.980;2023-09-08T05:58:57;8.68;;;5.10;;
69573;SDS011;62840;52.366;5.980;2023-09-08T06:01:23;8.88;;;5.05;;
69573;SDS011;62840;52.366;5.980;2023-09-08T06:03:49;7.78;;;4.93;;
69573;SDS011;62840;52.366;5.980;2023-09-08T06:06:15;8.00;;;5.28;;
69573;SDS011;62840;52.366;5.980;2023-09-08T06:08:40;9.77;;;5.03;;
69573;SDS011;62840;52.366;5.980;2023-09-08T06:11:06;9.38;;;5.63;;
69573;SDS011;62840;52.366;5.980;2023-09-08T06:13:32;7.70;;;5.10;;
69573;SDS011;62840;52.366;5.980;2023-09-08T06:16:01;8.40;;;4.97;;
69573;SDS011;62840;52.366;5.980;2023-09-08T06:18:27;9.30;;;4.75;;
69573;SDS011;62840;52.366;5.980;2023-09-08T06:20:54;8.63;;;4.95;;
69573;SDS011;62840;52.366;5.980;2023-09-08T06:23:19;8.03;;;4.73;;
69573;SDS011;62840;52.366;5.980;2023-09-08T06:25:45;7.40;;;4.72;;
69573;SDS011;62840;52.366;5.980;2023-09-08T06:28:11;7.27;;;4.93;;
69573;SDS011;62840;52.366;5.980;2023-09-08T06:30:37;8.02;;;5.00;;
69573;SDS011;62840;52.366;5.980;2023-09-08T06:33:05;7.87;;;4.77;;
69573;SDS011;62840;52.366;5.980;2023-09-08T06:35:31;8.02;;;4.80;;
69573;SDS011;62840;52.366;5.980;2023-09-08T06:37:56;9.13;;;4.78;;
69573;SDS011;62840;52.366;5.980;2023-09-08T06:40:22;9.70;;;5.20;;
69573;SDS011;62840;52.366;5.980;2023-09-08T06:42:48;11.57;;;5.47;;
69573;SDS011;62840;52.366;5.980;2023-09-08T06:45:13;8.83;;;5.17;;
69573;SDS011;62840;52.366;5.980;2023-09-08T06:47:39;8.93;;;4.70;;
69573;SDS011;62840;52.366;5.980;2023-09-08T06:50:08;7.27;;;4.87;;
69573;SDS011;62840;52.366;5.980;2023-09-08T06:52:34;7.43;;;4.72;;
69573;SDS011;62840;52.366;5.980;2023-09-08T06:55:00;8.00;;;4.77;;
69573;SDS011;62840;52.366;5.980;2023-09-08T06:57:26;7.65;;;4.78;;
69573;SDS011;62840;52.366;5.980;2023-09-08T06:59:51;7.50;;;5.20;;
69573;SDS011;62840;52.366;5.980;2023-09-08T07:02:17;8.32;;;4.75;;
69573;SDS011;62840;52.366;5.980;2023-09-08T07:04:43;6.20;;;4.40;;
69573;SDS011;62840;52.366;5.980;2023-09-08T07:07:11;7.75;;;4.90;;
69573;SDS011;62840;52.366;5.980;2023-09-08T07:09:37;7.70;;;5.00;;
69573;SDS011;62840;52.366;5.980;2023-09-08T07:12:03;8.25;;;5.30;;
69573;SDS011;62840;52.366;5.980;2023-09-08T07:14:30;8.27;;;4.88;;
69573;SDS011;62840;52.366;5.980;2023-09-08T07:16:56;8.85;;;5.75;;
69573;SDS011;62840;52.366;5.980;2023-09-08T07:19:21;8.18;;;5.38;;
69573;SDS011;62840;52.366;5.980;2023-09-08T07:21:47;7.70;;;5.23;;
69573;SDS011;62840;52.366;5.980;2023-09-08T07:24:16;9.95;;;6.18;;
69573;SDS011;62840;52.366;5.980;2023-09-08T07:26:41;7.82;;;5.28;;
69573;SDS011;62840;52.366;5.980;2023-09-08T07:29:07;9.40;;;5.97;;
69573;SDS011;62840;52.366;5.980;2023-09-08T07:31:33;10.98;;;6.32;;
69573;SDS011;62840;52.366;5.980;2023-09-08T07:33:59;9.30;;;6.03;;
69573;SDS011;62840;52.366;5.980;2023-09-08T07:36:24;11.40;;;6.45;;
69573;SDS011;62840;52.366;5.980;2023-09-08T07:38:50;11.30;;;6.37;;
69573;SDS011;62840;52.366;5.980;2023-09-08T07:41:18;10.35;;;6.57;;
69573;SDS011;62840;52.366;5.980;2023-09-08T07:43:44;10.52;;;6.70;;
69573;SDS011;62840;52.366;5.980;2023-09-08T07:46:10;11.47;;;7.03;;
69573;SDS011;62840;52.366;5.980;2023-09-08T07:48:35;11.50;;;6.93;;
69573;SDS011;62840;52.366;5.980;2023-09-08T07:51:01;11.63;;;6.97;;
69573;SDS011;62840;52.366;5.980;2023-09-08T07:53:27;11.70;;;7.75;;
69573;SDS011;62840;52.366;5.980;2023-09-08T07:55:53;10.47;;;6.83;;
69573;SDS011;62840;52.366;5.980;2023-09-08T07:58:21;13.00;;;8.27;;
69573;SDS011;62840;52.366;5.980;2023-09-08T08:00:47;13.00;;;7.85;;
69573;SDS011;62840;52.366;5.980;2023-09-08T08:03:13;14.70;;;8.27;;
69573;SDS011;62840;52.366;5.980;2023-09-08T08:05:38;14.32;;;8.55;;
69573;SDS011;62840;52.366;5.980;2023-09-08T08:08:04;12.60;;;7.73;;
69573;SDS011;62840;52.366;5.980;2023-09-08T08:10:30;14.23;;;7.65;;
69573;SDS011;62840;52.366;5.980;2023-09-08T08:12:56;13.00;;;7.70;;
69573;SDS011;62840;52.366;5.980;2023-09-08T08:15:34;13.60;;;8.23;;
69573;SDS011;62840;52.366;5.980;2023-09-08T08:18:00;12.43;;;7.22;;
69573;SDS011;62840;52.366;5.980;2023-09-08T08:20:26;10.80;;;6.87;;
69573;SDS011;62840;52.366;5.980;2023-09-08T08:22:52;14.95;;;7.30;;
69573;SDS011;62840;52.366;5.980;2023-09-08T08:25:18;12.33;;;7.37;;
69573;SDS011;62840;52.366;5.980;2023-09-08T08:27:43;11.98;;;7.20;;
69573;SDS011;62840;52.366;5.980;2023-09-08T08:30:09;12.57;;;8.13;;
69573;SDS011;62840;52.366;5.980;2023-09-08T08:32:38;10.90;;;7.80;;
69573;SDS011;62840;52.366;5.980;2023-09-08T08:35:04;11.93;;;7.80;;
69573;SDS011;62840;52.366;5.980;2023-09-08T08:37:30;13.02;;;8.20;;
69573;SDS011;62840;52.366;5.980;2023-09-08T08:39:56;12.50;;;7.75;;
69573;SDS011;62840;52.366;5.980;2023-09-08T08:42:21;12.97;;;8.00;;
69573;SDS011;62840;52.366;5.980;2023-09-08T08:44:47;14.57;;;7.97;;
69573;SDS011;62840;52.366;5.980;2023-09-08T08:47:14;12.40;;;8.35;;
69573;SDS011;62840;52.366;5.980;2023-09-08T08:49:44;12.18;;;6.78;;
69573;SDS011;62840;52.366;5.980;2023-09-08T08:52:12;11.25;;;6.93;;
69573;SDS011;62840;52.366;5.980;2023-09-08T08:54:40;10.90;;;7.40;;
69573;SDS011;62840;52.366;5.980;2023-09-08T08:57:06;12.68;;;7.25;;
69573;SDS011;62840;52.366;5.980;2023-09-08T08:59:32;13.07;;;7.57;;
69573;SDS011;62840;52.366;5.980;2023-09-08T09:01:58;11.63;;;7.50;;
69573;SDS011;62840;52.366;5.980;2023-09-08T09:04:26;11.52;;;7.50;;
69573;SDS011;62840;52.366;5.980;2023-09-08T09:06:55;11.30;;;7.32;;
69573;SDS011;62840;52.366;5.980;2023-09-08T09:09:23;11.45;;;7.53;;
69573;SDS011;62840;52.366;5.980;2023-09-08T09:11:50;13.38;;;8.75;;
69573;SDS011;62840;52.366;5.980;2023-09-08T09:14:16;12.95;;;7.88;;
69573;SDS011;62840;52.366;5.980;2023-09-08T09:16:42;11.52;;;7.68;;
69573;SDS011;62840;52.366;5.980;2023-09-08T09:19:09;12.55;;;6.95;;
69573;SDS011;62840;52.366;5.980;2023-09-08T09:21:42;10.23;;;6.93;;
69573;SDS011;62840;52.366;5.980;2023-09-08T09:24:16;11.85;;;7.28;;
69573;SDS011;62840;52.366;5.980;2023-09-08T09:26:42;12.00;;;7.38;;
69573;SDS011;62840;52.366;5.980;2023-09-08T09:29:11;13.88;;;7.78;;
69573;SDS011;62840;52.366;5.980;2023-09-08T09:31:40;9.23;;;6.63;;
69573;SDS011;62840;52.366;5.980;2023-09-08T09:34:16;12.52;;;6.90;;
69573;SDS011;62840;52.366;5.980;2023-09-08T09:36:42;11.33;;;7.27;;
69573;SDS011;62840;52.366;5.980;2023-09-08T09:39:08;12.77;;;7.68;;
69573;SDS011;62840;52.366;5.980;2023-09-08T09:41:36;11.70;;;7.70;;
69573;SDS011;62840;52.366;5.980;2023-09-08T09:44:02;11.38;;;7.47;;
69573;SDS011;62840;52.366;5.980;2023-09-08T09:46:29;13.18;;;7.05;;
69573;SDS011;62840;52.366;5.980;2023-09-08T09:48:55;10.70;;;7.13;;
69573;SDS011;62840;52.366;5.980;2023-09-08T09:51:21;11.13;;;6.93;;
69573;SDS011;62840;52.366;5.980;2023-09-08T09:53:47;10.23;;;6.68;;
69573;SDS011;62840;52.366;5.980;2023-09-08T09:56:15;12.30;;;7.38;;
69573;SDS011;62840;52.366;5.980;2023-09-08T09:58:45;13.20;;;8.40;;
69573;SDS011;62840;52.366;5.980;2023-09-08T10:01:13;11.52;;;8.00;;
69573;SDS011;62840;52.366;5.980;2023-09-08T10:03:40;11.13;;;7.17;;
69573;SDS011;62840;52.366;5.980;2023-09-08T10:06:06;10.05;;;6.60;;
69573;SDS011;62840;52.366;5.980;2023-09-08T10:08:33;11.57;;;7.03;;
69573;SDS011;62840;52.366;5.980;2023-09-08T10:11:00;10.32;;;6.97;;
69573;SDS011;62840;52.366;5.980;2023-09-08T10:13:31;11.18;;;7.53;;
69573;SDS011;62840;52.366;5.980;2023-09-08T10:16:08;9.88;;;6.53;;
69573;SDS011;62840;52.366;5.980;2023-09-08T10:18:38;10.65;;;6.78;;
69573;SDS011;62840;52.366;5.980;2023-09-08T10:21:09;9.98;;;6.72;;
69573;SDS011;62840;52.366;5.980;2023-09-08T10:23:37;9.70;;;6.97;;
69573;SDS011;62840;52.366;5.980;2023-09-08T10:26:09;10.20;;;6.38;;
69573;SDS011;62840;52.366;5.980;2023-09-08T10:28:36;11.45;;;6.78;;
69573;SDS011;62840;52.366;5.980;2023-09-08T10:31:03;9.38;;;6.80;;
69573;SDS011;62840;52.366;5.980;2023-09-08T10:33:34;9.77;;;6.40;;
69573;SDS011;62840;52.366;5.980;2023-09-08T10:36:02;9.13;;;6.60;;
69573;SDS011;62840;52.366;5.980;2023-09-08T10:38:30;11.52;;;6.03;;
69573;SDS011;62840;52.366;5.980;2023-09-08T10:43:54;8.15;;;5.85;;
69573;SDS011;62840;52.366;5.980;2023-09-08T10:46:25;11.52;;;6.22;;
69573;SDS011;62840;52.366;5.980;2023-09-08T10:48:53;9.27;;;6.43;;
69573;SDS011;62840;52.366;5.980;2023-09-08T10:51:19;10.45;;;6.13;;
69573;SDS011;62840;52.366;5.980;2023-09-08T10:53:47;9.50;;;5.95;;
69573;SDS011;62840;52.366;5.980;2023-09-08T10:56:13;11.60;;;5.97;;
69573;SDS011;62840;52.366;5.980;2023-09-08T10:58:39;9.17;;;5.87;;
69573;SDS011;62840;52.366;5.980;2023-09-08T11:01:05;9.07;;;5.90;;
69573;SDS011;62840;52.366;5.980;2023-09-08T11:03:45;8.93;;;5.80;;
69573;SDS011;62840;52.366;5.980;2023-09-08T11:06:12;9.45;;;6.00;;
69573;SDS011;62840;52.366;5.980;2023-09-08T11:08:41;10.55;;;5.80;;
69573;SDS011;62840;52.366;5.980;2023-09-08T11:11:09;10.60;;;6.13;;
69573;SDS011;62840;52.366;5.980;2023-09-08T11:13:36;8.93;;;6.20;;
69573;SDS011;62840;52.366;5.980;2023-09-08T11:16:02;11.23;;;5.90;;
69573;SDS011;62840;52.366;5.980;2023-09-08T11:18:29;7.60;;;5.80;;
69573;SDS011;62840;52.366;5.980;2023-09-08T11:20:58;9.88;;;5.95;;
69573;SDS011;62840;52.366;5.980;2023-09-08T11:23:25;7.72;;;5.88;;
69573;SDS011;62840;52.366;5.980;2023-09-08T11:25:51;7.97;;;5.90;;
69573;SDS011;62840;52.366;5.980;2023-09-08T11:28:18;8.50;;;5.63;;
69573;SDS011;62840;52.366;5.980;2023-09-08T11:30:47;9.07;;;6.10;;
69573;SDS011;62840;52.366;5.980;2023-09-08T11:33:13;9.20;;;6.30;;
69573;SDS011;62840;52.366;5.980;2023-09-08T11:35:40;9.05;;;5.95;;
69573;SDS011;62840;52.366;5.980;2023-09-08T11:38:09;8.88;;;6.32;;
69573;SDS011;62840;52.366;5.980;2023-09-08T11:40:35;9.25;;;6.07;;
69573;SDS011;62840;52.366;5.980;2023-09-08T11:43:01;8.90;;;6.10;;
69573;SDS011;62840;52.366;5.980;2023-09-08T11:45:28;10.30;;;6.03;;
69573;SDS011;62840;52.366;5.980;2023-09-08T11:47:56;8.75;;;6.00;;
69573;SDS011;62840;52.366;5.980;2023-09-08T11:50:22;9.50;;;6.15;;
69573;SDS011;62840;52.366;5.980;2023-09-08T11:52:50;8.05;;;5.97;;
69573;SDS011;62840;52.366;5.980;2023-09-08T11:55:21;8.45;;;5.63;;
69573;SDS011;62840;52.366;5.980;2023-09-08T11:57:48;8.43;;;5.65;;
69573;SDS011;62840;52.366;5.980;2023-09-08T12:00:16;9.30;;;5.63;;
69573;SDS011;62840;52.366;5.980;2023-09-08T12:02:45;8.07;;;6.07;;
69573;SDS011;62840;52.366;5.980;2023-09-08T12:05:11;7.72;;;5.90;;
69573;SDS011;62840;52.366;5.980;2023-09-08T12:07:37;9.52;;;5.50;;
69573;SDS011;62840;52.366;5.980;2023-09-08T12:10:06;7.35;;;5.28;;
69573;SDS011;62840;52.366;5.980;2023-09-08T12:12:43;8.50;;;6.10;;
69573;SDS011;62840;52.366;5.980;2023-09-08T12:15:10;8.80;;;6.10;;
69573;SDS011;62840;52.366;5.980;2023-09-08T12:17:46;9.38;;;6.10;;
69573;SDS011;62840;52.366;5.980;2023-09-08T12:20:13;7.60;;;5.65;;
69573;SDS011;62840;52.366;5.980;2023-09-08T12:22:46;8.30;;;6.00;;
69573;SDS011;62840;52.366;5.980;2023-09-08T12:25:13;8.57;;;5.70;;
69573;SDS011;62840;52.366;5.980;2023-09-08T12:27:39;8.75;;;6.05;;
69573;SDS011;62840;52.366;5.980;2023-09-08T12:30:08;9.18;;;5.85;;
69573;SDS011;62840;52.366;5.980;2023-09-08T12:32:41;10.57;;;6.22;;
69573;SDS011;62840;52.366;5.980;2023-09-08T12:35:07;8.80;;;5.90;;
69573;SDS011;62840;52.366;5.980;2023-09-08T12:37:33;11.57;;;6.00;;
69573;SDS011;62840;52.366;5.980;2023-09-08T12:39:59;7.68;;;5.78;;
69573;SDS011;62840;52.366;5.980;2023-09-08T12:42:25;8.10;;;5.73;;
69573;SDS011;62840;52.366;5.980;2023-09-08T12:44:53;9.20;;;6.43;;
69573;SDS011;62840;52.366;5.980;2023-09-08T12:47:19;8.85;;;6.30;;
69573;SDS011;62840;52.366;5.980;2023-09-08T12:49:44;7.47;;;6.00;;
69573;SDS011;62840;52.366;5.980;2023-09-08T12:52:10;10.90;;;7.80;;
69573;SDS011;62840;52.366;5.980;2023-09-08T12:54:36;8.90;;;6.60;;
69573;SDS011;62840;52.366;5.980;2023-09-08T12:57:01;8.93;;;6.10;;
69573;SDS011;62840;52.366;5.980;2023-09-08T12:59:27;9.40;;;5.90;;
69573;SDS011;62840;52.366;5.980;2023-09-08T13:01:56;9.23;;;6.20;;
69573;SDS011;62840;52.366;5.980;2023-09-08T13:04:21;8.27;;;5.85;;
69573;SDS011;62840;52.366;5.980;2023-09-08T13:06:47;8.20;;;5.72;;
69573;SDS011;62840;52.366;5.980;2023-09-08T13:09:13;8.80;;;6.50;;
69573;SDS011;62840;52.366;5.980;2023-09-08T13:11:39;9.93;;;6.18;;
69573;SDS011;62840;52.366;5.980;2023-09-08T13:14:04;9.60;;;6.10;;
69573;SDS011;62840;52.366;5.980;2023-09-08T13:16:30;8.55;;;6.53;;
69573;SDS011;62840;52.366;5.980;2023-09-08T13:18:58;8.87;;;6.60;;
69573;SDS011;62840;52.366;5.980;2023-09-08T13:21:24;8.65;;;6.55;;
69573;SDS011;62840;52.366;5.980;2023-09-08T13:23:50;9.00;;;6.80;;
69573;SDS011;62840;52.366;5.980;2023-09-08T13:26:16;9.75;;;6.78;;
69573;SDS011;62840;52.366;5.980;2023-09-08T13:28:42;9.30;;;6.47;;
69573;SDS011;62840;52.366;5.980;2023-09-08T13:31:07;9.93;;;6.75;;
69573;SDS011;62840;52.366;5.980;2023-09-08T13:33:33;7.82;;;6.60;;
69573;SDS011;62840;52.366;5.980;2023-09-08T13:36:01;13.63;;;9.00;;
69573;SDS011;62840;52.366;5.980;2023-09-08T13:38:27;12.55;;;8.77;;
69573;SDS011;62840;52.366;5.980;2023-09-08T13:40:53;9.07;;;6.63;;
69573;SDS011;62840;52.366;5.980;2023-09-08T13:43:19;8.70;;;6.50;;
69573;SDS011;62840;52.366;5.980;2023-09-08T13:45:44;8.60;;;6.20;;
69573;SDS011;62840;52.366;5.980;2023-09-08T13:48:10;8.00;;;6.35;;
69573;SDS011;62840;52.366;5.980;2023-09-08T13:50:37;10.87;;;6.20;;
69573;SDS011;62840;52.366;5.980;2023-09-08T13:53:06;8.75;;;6.03;;
69573;SDS011;62840;52.366;5.980;2023-09-08T13:55:31;7.93;;;6.13;;
69573;SDS011;62840;52.366;5.980;2023-09-08T13:57:57;10.57;;;5.90;;
69573;SDS011;62840;52.366;5.980;2023-09-08T14:00:23;9.60;;;6.13;;
69573;SDS011;62840;52.366;5.980;2023-09-08T14:02:49;14.37;;;6.53;;
69573;SDS011;62840;52.366;5.980;2023-09-08T14:05:14;10.60;;;6.55;;
69573;SDS011;62840;52.366;5.980;2023-09-08T14:07:40;14.57;;;7.37;;
69573;SDS011;62840;52.366;5.980;2023-09-08T14:10:08;8.85;;;6.35;;
69573;SDS011;62840;52.366;5.980;2023-09-08T14:12:35;9.43;;;5.83;;
69573;SDS011;62840;52.366;5.980;2023-09-08T14:15:00;8.43;;;5.88;;
69573;SDS011;62840;52.366;5.980;2023-09-08T14:17:26;8.53;;;6.23;;
69573;SDS011;62840;52.366;5.980;2023-09-08T14:19:52;9.02;;;6.53;;
69573;SDS011;62840;52.366;5.980;2023-09-08T14:22:17;8.60;;;6.60;;
69573;SDS011;62840;52.366;5.980;2023-09-08T14:24:43;9.00;;;6.05;;
69573;SDS011;62840;52.366;5.980;2023-09-08T14:27:11;8.30;;;6.30;;
69573;SDS011;62840;52.366;5.980;2023-09-08T14:29:37;8.80;;;6.55;;
69573;SDS011;62840;52.366;5.980;2023-09-08T14:32:03;9.82;;;6.13;;
69573;SDS011;62840;52.366;5.980;2023-09-08T14:34:29;7.63;;;6.22;;
69573;SDS011;62840;52.366;5.980;2023-09-08T14:36:55;9.15;;;6.38;;
69573;SDS011;62840;52.366;5.980;2023-09-08T14:39:20;9.20;;;6.07;;
69573;SDS011;62840;52.366;5.980;2023-09-08T14:41:46;8.10;;;6.03;;
69573;SDS011;62840;52.366;5.980;2023-09-08T14:44:16;9.32;;;5.88;;
69573;SDS011;62840;52.366;5.980;2023-09-08T14:46:41;11.35;;;6.63;;